Time;durP1;ratioP1;P1;durP2;ratioP2;P2;SDS_P1;SDS_P2;PMS_P1;PMS_P2;Temp;Humidity;BMP_temperature;BMP_pressure;BME280_temperature;BME280_humidity;BME280_pressure;Samples;Min_cycle;Max_cycle;Signal;HPM_P1;HPM_P2
2021/12/03 00:01:10;;;;;;;8.35;5.15;;;;;;;-1.13;87.26;96791.03;5049696;28;20421;-52
2021/12/03 00:03:37;;;;;;;7.93;5.03;;;;;;;-1.16;87.78;96789.56;5047531;28;20033;-54
2021/12/03 00:06:05;;;;;;;10.10;5.22;;;;;;;-1.08;87.19;96789.44;5056254;28;20056;-54
2021/12/03 00:08:32;;;;;;;12.73;5.15;;;;;;;-1.05;87.17;96796.19;5046980;28;20049;-53
2021/12/03 00:11:01;;;;;;;8.88;5.20;;;;;;;-0.96;87.06;96794.25;5056163;28;20041;-51
2021/12/03 00:13:31;;;;;;;9.27;3.95;;;;;;;-0.91;86.72;96802.44;5056135;28;20519;-53
2021/12/03 00:15:59;;;;;;;7.60;3.90;;;;;;;-0.87;87.11;96814.34;5067271;28;20423;-53
2021/12/03 00:18:26;;;;;;;7.68;3.92;;;;;;;-0.84;86.41;96821.09;5050022;28;20103;-53
2021/12/03 00:20:54;;;;;;;7.75;3.72;;;;;;;-0.89;86.92;96826.19;5067858;28;20051;-53
2021/12/03 00:23:24;;;;;;;13.82;4.43;;;;;;;-0.92;86.98;96832.72;5048791;28;20045;-54
2021/12/03 00:25:50;;;;;;;7.65;4.47;;;;;;;-0.95;87.63;96838.41;5048681;28;20053;-54
2021/12/03 00:28:17;;;;;;;7.20;4.07;;;;;;;-0.96;87.18;96850.84;5068360;28;20074;-53
2021/12/03 00:30:44;;;;;;;7.88;4.32;;;;;;;-0.97;87.17;96857.19;5058414;28;20591;-53
2021/12/03 00:33:12;;;;;;;10.02;5.03;;;;;;;-0.92;87.71;96854.78;5054553;28;20048;-55
2021/12/03 00:35:38;;;;;;;8.38;5.07;;;;;;;-0.89;86.42;96850.09;5068643;28;20036;-52
2021/12/03 00:38:05;;;;;;;8.68;4.78;;;;;;;-0.88;86.98;96857.91;5059614;28;20099;-52
2021/12/03 00:40:37;;;;;;;7.30;4.10;;;;;;;-0.88;87.08;96857.91;5048054;28;20045;-52
2021/12/03 00:43:06;;;;;;;14.73;4.75;;;;;;;-0.85;86.43;96856.69;5049654;28;20040;-51
2021/12/03 00:45:33;;;;;;;7.90;4.18;;;;;;;-0.88;86.82;96875.66;5048100;28;20052;-55
2021/12/03 00:47:59;;;;;;;8.05;4.63;;;;;;;-0.86;86.42;96870.97;5057068;28;20120;-54
2021/12/03 00:50:28;;;;;;;12.35;5.20;;;;;;;-0.89;86.19;96874.03;5046555;28;20056;-53
2021/12/03 00:52:56;;;;;;;8.80;4.20;;;;;;;-0.92;87.44;96875.22;5065280;28;20051;-51
2021/12/03 00:55:26;;;;;;;9.55;4.22;;;;;;;-0.93;86.60;96878.88;5068413;28;20804;-55
2021/12/03 00:57:53;;;;;;;10.20;5.17;;;;;;;-0.89;86.96;96887.31;5051209;28;20098;-49
2021/12/03 01:00:23;;;;;;;12.32;5.07;;;;;;;-0.97;87.04;96882.94;5054137;28;20105;-49
2021/12/03 01:02:52;;;;;;;9.13;4.72;;;;;;;-1.02;86.77;96890.66;5053204;28;20085;-49
2021/12/03 01:05:20;;;;;;;9.63;4.85;;;;;;;-1.03;87.78;96894.34;5052355;28;20487;-51
2021/12/03 01:07:46;;;;;;;7.95;4.20;;;;;;;-1.05;86.48;96891.88;5047675;28;20132;-55
2021/12/03 01:10:13;;;;;;;7.93;4.38;;;;;;;-1.08;86.43;96898.38;5050887;28;20148;-51
2021/12/03 01:12:40;;;;;;;10.48;4.63;;;;;;;-1.12;86.31;96897.13;5044899;28;20047;-51
2021/12/03 01:15:11;;;;;;;11.10;6.40;;;;;;;-1.16;86.37;96908.28;5041673;28;20470;-54
2021/12/03 01:17:37;;;;;;;9.57;4.80;;;;;;;-1.25;86.39;96912.91;5046029;28;20037;-51
2021/12/03 01:20:07;;;;;;;10.13;5.43;;;;;;;-1.25;86.07;96919.03;5067330;28;20051;-54
2021/12/03 01:22:33;;;;;;;9.38;4.55;;;;;;;-1.26;86.37;96921.91;5066359;28;20051;-55
2021/12/03 01:25:00;;;;;;;9.30;4.18;;;;;;;-1.27;86.33;96926.38;5047691;28;20041;-56
2021/12/03 01:27:26;;;;;;;8.63;4.60;;;;;;;-1.23;85.99;96929.47;5048430;28;20045;-55
2021/12/03 01:29:55;;;;;;;11.65;4.80;;;;;;;-1.22;86.61;96923.97;5046193;28;20634;-51
2021/12/03 01:32:21;;;;;;;10.20;5.07;;;;;;;-1.24;86.13;96922.53;5048358;28;20492;-52
2021/12/03 01:34:48;;;;;;;14.77;5.10;;;;;;;-1.25;86.46;96921.69;5066805;28;20033;-51
2021/12/03 01:37:14;;;;;;;9.05;4.68;;;;;;;-1.30;86.61;96929.41;5067280;28;20044;-49
2021/12/03 01:39:41;;;;;;;8.15;4.68;;;;;;;-1.27;86.71;96929.03;5066947;28;20664;-52
2021/12/03 01:42:08;;;;;;;11.60;4.45;;;;;;;-1.26;86.39;96925.38;5060731;28;20712;-52
2021/12/03 01:44:35;;;;;;;7.15;4.40;;;;;;;-1.31;86.16;96938.41;5066841;28;20044;-52
2021/12/03 01:47:02;;;;;;;9.55;5.32;;;;;;;-1.36;86.75;96932.81;5051891;28;20416;-51
2021/12/03 01:49:28;;;;;;;8.82;4.28;;;;;;;-1.38;86.59;96935.66;5047261;28;20045;-49
2021/12/03 01:51:55;;;;;;;8.48;4.43;;;;;;;-1.36;86.76;96938.13;5059677;28;20048;-49
2021/12/03 01:54:21;;;;;;;9.88;4.63;;;;;;;-1.31;87.11;96938.41;5059951;28;20033;-50
2021/12/03 01:56:48;;;;;;;9.18;5.20;;;;;;;-1.33;87.00;96941.22;5060731;28;20036;-52
2021/12/03 01:59:15;;;;;;;10.00;4.70;;;;;;;-1.22;86.52;96939.13;5055743;28;20522;-54
2021/12/03 02:01:41;;;;;;;6.75;4.00;;;;;;;-1.37;86.60;96941.81;5051744;28;20048;-53
2021/12/03 02:04:08;;;;;;;8.43;5.18;;;;;;;-1.38;86.38;96938.31;5062601;28;20032;-53
2021/12/03 02:06:35;;;;;;;9.38;4.68;;;;;;;-1.41;86.77;96940.53;5046096;28;20255;-53
2021/12/03 02:09:02;;;;;;;10.63;4.50;;;;;;;-1.42;86.43;96937.03;5042018;28;20044;-54
2021/12/03 02:11:28;;;;;;;8.57;4.75;;;;;;;-1.39;86.33;96939.34;5049192;28;20511;-53
2021/12/03 02:13:56;;;;;;;8.13;4.65;;;;;;;-1.48;86.27;96938.59;5051895;28;20044;-52
2021/12/03 02:16:25;;;;;;;10.40;4.80;;;;;;;-1.42;86.36;96937.03;5066516;28;20090;-53
2021/12/03 02:18:52;;;;;;;9.00;4.43;;;;;;;-1.46;86.27;96941.91;5059091;28;20106;-54
2021/12/03 02:21:20;;;;;;;9.98;5.22;;;;;;;-1.47;86.49;96944.75;5046374;28;20048;-51
2021/12/03 02:23:47;;;;;;;7.85;4.20;;;;;;;-1.34;85.69;96952.88;5057347;28;20039;-53
2021/12/03 02:26:14;;;;;;;9.27;3.90;;;;;;;-1.33;85.01;96965.13;5064811;28;20045;-54
2021/12/03 02:28:45;;;;;;;8.15;4.50;;;;;;;-1.36;85.86;96967.34;5064769;28;20036;-52
2021/12/03 02:31:14;;;;;;;8.25;5.20;;;;;;;-1.35;86.08;96963.69;5064977;28;20046;-54
2021/12/03 02:33:40;;;;;;;9.32;5.00;;;;;;;-1.39;86.04;96963.25;5054045;28;20075;-51
2021/12/03 02:36:07;;;;;;;7.60;5.07;;;;;;;-1.31;85.41;96957.00;5065908;28;20106;-53
2021/12/03 02:38:34;;;;;;;9.02;5.35;;;;;;;-1.35;85.71;96956.53;5038987;28;20432;-54
2021/12/03 02:41:02;;;;;;;7.90;4.55;;;;;;;-1.32;85.52;96955.34;5066092;28;20040;-49
2021/12/03 02:43:30;;;;;;;8.27;4.63;;;;;;;-1.24;84.81;96965.03;5044344;28;20432;-52
2021/12/03 02:45:57;;;;;;;7.25;4.03;;;;;;;-1.36;85.07;96954.06;5045582;28;20059;-49
2021/12/03 02:48:26;;;;;;;8.38;4.68;;;;;;;-1.35;85.72;96953.06;5058255;28;20054;-50
2021/12/03 02:50:54;;;;;;;7.63;4.85;;;;;;;-1.40;85.19;96955.44;5048380;28;20700;-51
2021/12/03 02:53:21;;;;;;;7.45;4.03;;;;;;;-1.36;85.33;96962.03;5065884;28;20048;-51
2021/12/03 02:55:47;;;;;;;10.07;4.85;;;;;;;-1.46;85.26;96965.81;5054199;28;20045;-53
2021/12/03 02:58:14;;;;;;;10.20;5.28;;;;;;;-1.46;85.68;96968.47;5065562;28;20051;-50
2021/12/03 03:00:43;;;;;;;10.07;5.22;;;;;;;-1.49;85.43;96970.66;5056777;28;20044;-49
2021/12/03 03:03:09;;;;;;;8.05;4.65;;;;;;;-1.48;85.50;96981.09;5049769;28;20045;-48
2021/12/03 03:05:36;;;;;;;9.35;4.65;;;;;;;-1.49;84.95;96981.28;5047001;28;20044;-49
2021/12/03 03:08:03;;;;;;;10.60;4.88;;;;;;;-1.49;86.19;96975.97;5045702;28;20045;-53
2021/12/03 03:10:33;;;;;;;8.35;4.85;;;;;;;-1.49;85.73;96979.44;5060248;28;20040;-56
2021/12/03 03:13:00;;;;;;;9.27;4.80;;;;;;;-1.56;86.19;96981.19;5045410;28;20052;-55
2021/12/03 03:15:27;;;;;;;9.10;4.80;;;;;;;-1.52;86.23;96981.66;5024947;28;20116;-53
2021/12/03 03:17:54;;;;;;;8.60;5.30;;;;;;;-1.48;86.29;96981.09;5042728;28;20535;-52
2021/12/03 03:20:21;;;;;;;11.60;5.40;;;;;;;-1.44;86.11;96990.34;5062884;28;20059;-52
2021/12/03 03:22:49;;;;;;;8.88;5.13;;;;;;;-1.48;86.39;96982.91;5053083;28;20041;-55
2021/12/03 03:25:18;;;;;;;14.52;5.85;;;;;;;-1.49;85.95;96994.56;5058753;28;20087;-56
2021/12/03 03:27:46;;;;;;;14.18;6.38;;;;;;;-1.44;86.39;96992.16;5044903;28;20059;-52
2021/12/03 03:30:16;;;;;;;6.70;3.97;;;;;;;-1.49;85.98;96998.03;5046407;28;20051;-57
2021/12/03 03:32:43;;;;;;;10.18;5.20;;;;;;;-1.47;85.71;96996.00;5047435;28;20045;-55
2021/12/03 03:35:10;;;;;;;9.07;4.90;;;;;;;-1.47;85.93;96997.88;5064823;28;20441;-57
2021/12/03 03:37:37;;;;;;;8.85;5.38;;;;;;;-1.48;85.87;97004.16;5056334;28;20045;-56
2021/12/03 03:40:05;;;;;;;10.02;5.22;;;;;;;-1.54;86.31;97005.75;5048556;28;20055;-57
2021/12/03 03:42:33;;;;;;;10.27;5.72;;;;;;;-1.55;86.29;97011.22;5065711;28;20102;-56
2021/12/03 03:45:02;;;;;;;7.63;5.00;;;;;;;-1.54;86.09;97012.88;5051331;28;20128;-58
2021/12/03 03:47:29;;;;;;;10.98;5.35;;;;;;;-1.49;85.56;97008.66;5056789;28;20055;-54
2021/12/03 03:49:56;;;;;;;8.05;4.70;;;;;;;-1.51;85.11;97013.31;5071631;28;20063;-56
2021/12/03 03:52:23;;;;;;;8.80;4.93;;;;;;;-1.42;84.88;97013.22;5067019;28;20140;-51
2021/12/03 03:54:49;;;;;;;10.57;5.43;;;;;;;-1.46;85.07;97015.44;5052735;28;20048;-56
2021/12/03 03:57:16;;;;;;;9.70;4.60;;;;;;;-1.45;85.10;97019.72;5053939;28;20044;-55
2021/12/03 03:59:43;;;;;;;11.07;5.53;;;;;;;-1.50;85.77;97017.66;5070901;28;20487;-56
2021/12/03 04:02:09;;;;;;;9.05;4.82;;;;;;;-1.53;85.07;97027.78;5062568;28;20504;-57
2021/12/03 04:04:36;;;;;;;8.98;4.65;;;;;;;-1.51;84.93;97031.91;5051175;28;20064;-54
2021/12/03 04:07:03;;;;;;;10.57;4.90;;;;;;;-1.51;84.61;97031.91;5061150;28;20055;-55
2021/12/03 04:09:30;;;;;;;8.43;4.30;;;;;;;-1.50;83.96;97041.53;5071790;28;20040;-53
2021/12/03 04:11:57;;;;;;;9.07;4.20;;;;;;;-1.40;83.73;97043.09;5062253;28;20071;-56
2021/12/03 04:14:24;;;;;;;9.48;4.43;;;;;;;-1.49;83.82;97045.84;5071230;28;20028;-53
2021/12/03 04:16:50;;;;;;;6.30;4.10;;;;;;;-1.50;84.20;97043.38;5069110;28;20041;-55
2021/12/03 04:19:18;;;;;;;10.07;5.40;;;;;;;-1.59;84.60;97045.28;5071135;28;20414;-57
2021/12/03 04:21:46;;;;;;;7.97;4.60;;;;;;;-1.54;84.28;97042.09;5057411;28;20052;-56
2021/12/03 04:24:14;;;;;;;10.20;4.88;;;;;;;-1.56;84.62;97047.56;5051030;28;20041;-53
2021/12/03 04:26:40;;;;;;;11.95;5.45;;;;;;;-1.58;84.72;97049.59;5063212;28;20049;-56
2021/12/03 04:29:07;;;;;;;7.57;4.38;;;;;;;-1.58;83.97;97053.06;5071300;28;20044;-56
2021/12/03 04:31:33;;;;;;;9.55;4.07;;;;;;;-1.50;82.78;97056.66;5052439;28;20049;-56
2021/12/03 04:34:00;;;;;;;8.82;4.57;;;;;;;-1.55;84.12;97051.06;5051236;28;20076;-56
2021/12/03 04:36:27;;;;;;;11.07;5.57;;;;;;;-1.55;85.21;97056.38;5052533;28;20037;-57
2021/12/03 04:38:54;;;;;;;7.15;4.25;;;;;;;-1.56;85.03;97052.88;5050784;28;20045;-55
2021/12/03 04:41:20;;;;;;;7.90;4.55;;;;;;;-1.46;84.71;97061.41;5066247;28;20048;-58
2021/12/03 04:43:47;;;;;;;11.02;5.05;;;;;;;-1.59;84.62;97062.03;5069992;28;20525;-55
2021/12/03 04:46:14;;;;;;;10.10;4.47;;;;;;;-1.51;84.11;97065.63;5063280;28;20146;-57
2021/12/03 04:48:40;;;;;;;8.48;4.72;;;;;;;-1.42;83.52;97064.53;5066652;28;20592;-57
2021/12/03 04:51:07;;;;;;;9.43;5.25;;;;;;;-1.35;82.30;97070.75;5070930;28;20044;-56
2021/12/03 04:53:34;;;;;;;6.75;4.13;;;;;;;-1.41;82.82;97079.44;5048162;28;20113;-55
2021/12/03 04:56:00;;;;;;;8.88;4.63;;;;;;;-1.57;83.40;97075.13;5047711;28;20044;-55
2021/12/03 04:58:27;;;;;;;6.97;3.80;;;;;;;-1.67;83.32;97086.00;5048936;28;20041;-56
2021/12/03 05:00:56;;;;;;;9.07;5.05;;;;;;;-1.78;83.98;97081.97;5059406;28;20045;-56
2021/12/03 05:03:25;;;;;;;7.32;4.50;;;;;;;-1.86;84.04;97079.38;5048617;28;20041;-56
2021/12/03 05:05:58;;;;;;;9.07;3.97;;;;;;;-1.87;84.30;97081.22;5044930;28;20041;-57
2021/12/03 05:08:29;;;;;;;11.77;4.55;;;;;;;-1.87;83.70;97078.59;5048033;28;20044;-57
2021/12/03 05:10:56;;;;;;;9.00;3.90;;;;;;;-1.96;83.99;97080.47;5051092;28;20049;-52
2021/12/03 05:13:31;;;;;;;8.20;3.90;;;;;;;-2.00;84.21;97079.19;5047475;28;20052;-52
2021/12/03 05:15:58;;;;;;;7.55;4.30;;;;;;;-1.98;83.62;97090.41;5047661;28;20037;-55
2021/12/03 05:18:28;;;;;;;7.78;3.78;;;;;;;-2.18;84.64;97099.91;5046983;28;20057;-53
2021/12/03 05:20:58;;;;;;;10.20;4.47;;;;;;;-2.26;85.17;97088.31;5045563;28;20040;-54
2021/12/03 05:23:27;;;;;;;7.95;4.18;;;;;;;-2.36;85.58;97098.34;5047688;28;20532;-56
2021/12/03 05:25:54;;;;;;;7.90;4.53;;;;;;;-2.47;85.84;97096.09;5047364;28;20479;-51
2021/12/03 05:28:22;;;;;;;7.45;3.88;;;;;;;-2.64;86.76;97096.19;5061239;28;20060;-52
2021/12/03 05:30:49;;;;;;;7.35;4.30;;;;;;;-2.61;87.24;97101.16;5047082;28;20466;-50
2021/12/03 05:33:16;;;;;;;8.00;4.57;;;;;;;-2.62;87.11;97110.09;5046055;28;20037;-47
2021/12/03 05:35:43;;;;;;;11.73;5.10;;;;;;;-2.65;87.08;97113.91;5047165;28;20116;-49
2021/12/03 05:38:10;;;;;;;9.98;4.72;;;;;;;-2.72;87.24;97106.84;5058592;28;20051;-47
2021/12/03 05:40:36;;;;;;;9.10;3.78;;;;;;;-2.66;86.37;97109.63;5046788;28;20041;-50
2021/12/03 05:43:04;;;;;;;9.25;4.57;;;;;;;-2.53;85.46;97116.19;5045411;28;20138;-50
2021/12/03 05:45:32;;;;;;;10.27;4.50;;;;;;;-2.46;84.90;97118.97;5051073;28;20033;-48
2021/12/03 05:47:59;;;;;;;10.07;4.75;;;;;;;-2.54;84.52;97120.66;5047572;28;20516;-45
2021/12/03 05:50:27;;;;;;;9.65;4.80;;;;;;;-2.59;84.48;97120.34;5044947;28;20043;-51
2021/12/03 05:52:54;;;;;;;10.43;5.63;;;;;;;-2.63;84.46;97119.03;5046177;28;20496;-54
2021/12/03 05:55:21;;;;;;;14.07;5.82;;;;;;;-2.60;84.39;97129.31;5062945;28;20051;-50
2021/12/03 05:57:47;;;;;;;7.57;4.78;;;;;;;-2.57;83.59;97133.44;5062346;28;20052;-51
2021/12/03 06:00:19;;;;;;;9.13;4.78;;;;;;;-2.66;84.12;97133.47;5066546;28;20071;-50
2021/12/03 06:02:46;;;;;;;13.63;4.68;;;;;;;-2.70;84.23;97137.47;5054018;28;20083;-51
2021/12/03 06:05:14;;;;;;;10.77;5.60;;;;;;;-2.82;84.31;97136.19;5063052;28;20558;-51
2021/12/03 06:07:41;;;;;;;9.52;5.20;;;;;;;-2.83;83.91;97147.81;5047622;28;20071;-49
2021/12/03 06:10:08;;;;;;;7.47;4.65;;;;;;;-2.81;83.93;97148.44;5045693;28;20044;-53
2021/12/03 06:12:39;;;;;;;;;;;;;;;-2.81;83.44;97143.13;5050939;28;20051;-52
2021/12/03 06:15:06;;;;;;;7.20;4.00;;;;;;;-2.83;83.46;97150.44;5049700;28;19921;-53
2021/12/03 06:17:33;;;;;;;8.13;4.75;;;;;;;-2.91;83.28;97162.72;5045668;28;20044;-52
2021/12/03 06:19:59;;;;;;;8.38;4.10;;;;;;;-2.97;83.36;97144.88;5046443;28;20049;-51
2021/12/03 06:22:26;;;;;;;8.15;4.63;;;;;;;-2.99;83.63;97159.28;5056307;28;20059;-50
2021/12/03 06:24:52;;;;;;;8.50;4.07;;;;;;;-2.83;84.19;97167.19;5057365;28;20175;-52
2021/12/03 06:27:19;;;;;;;7.25;4.00;;;;;;;-2.90;83.84;97160.91;5048556;28;20047;-52
2021/12/03 06:29:46;;;;;;;9.30;4.63;;;;;;;-2.89;84.08;97167.84;5046113;28;20045;-50
2021/12/03 06:32:12;;;;;;;11.18;4.78;;;;;;;-3.02;84.65;97161.28;5052251;28;20474;-48
2021/12/03 06:34:39;;;;;;;9.50;4.60;;;;;;;-3.09;84.90;97162.13;5049645;28;20055;-49
2021/12/03 06:37:06;;;;;;;8.25;4.22;;;;;;;-3.00;85.83;97163.75;5045478;28;20455;-46
2021/12/03 06:39:33;;;;;;;13.02;5.68;;;;;;;-2.78;84.15;97166.66;5044305;28;20041;-48
2021/12/03 06:42:00;;;;;;;9.48;4.32;;;;;;;-2.62;83.20;97161.28;5044812;28;20060;-50
2021/12/03 06:44:27;;;;;;;8.55;4.55;;;;;;;-2.54;82.37;97167.56;5045411;28;20040;-48
2021/12/03 06:46:54;;;;;;;14.75;6.43;;;;;;;-2.45;82.16;97174.47;5044937;28;20052;-50
2021/12/03 06:49:22;;;;;;;31.63;13.65;;;;;;;-2.37;81.78;97169.13;5046039;28;20075;-51
2021/12/03 06:51:51;;;;;;;27.90;10.82;;;;;;;-2.32;81.17;97178.38;5045228;28;20102;-53
2021/12/03 06:54:24;;;;;;;13.15;5.57;;;;;;;-2.32;81.42;97171.25;5045850;28;20094;-50
2021/12/03 06:56:52;;;;;;;6.22;3.65;;;;;;;-2.16;80.34;97178.28;5045556;28;20048;-49
2021/12/03 06:59:21;;;;;;;4.72;2.40;;;;;;;-2.00;78.67;97182.66;5045307;28;20167;-50
2021/12/03 07:01:48;;;;;;;7.18;3.50;;;;;;;-1.98;78.88;97188.59;5048323;28;20534;-48
2021/12/03 07:04:16;;;;;;;8.00;3.65;;;;;;;-2.09;78.83;97191.69;5043220;28;20049;-51
2021/12/03 07:06:42;;;;;;;6.60;2.67;;;;;;;-2.06;79.17;97183.38;5050577;28;20454;-52
2021/12/03 07:09:09;;;;;;;5.03;2.45;;;;;;;-2.04;79.59;97181.34;5042368;28;20047;-53
2021/12/03 07:11:36;;;;;;;6.78;3.72;;;;;;;-2.18;80.13;97188.25;5041375;28;20056;-51
2021/12/03 07:14:03;;;;;;;6.40;3.38;;;;;;;-2.18;80.07;97190.09;5042565;28;20513;-48
2021/12/03 07:16:30;;;;;;;8.15;3.13;;;;;;;-2.03;79.12;97190.16;5054975;28;20104;-48
2021/12/03 07:18:57;;;;;;;7.05;3.08;;;;;;;-2.04;79.13;97189.31;5043265;28;20057;-51
2021/12/03 07:21:25;;;;;;;4.88;2.83;;;;;;;-2.01;79.83;97193.44;5043305;28;20041;-48
2021/12/03 07:23:53;;;;;;;9.50;4.43;;;;;;;-2.08;79.68;97201.28;5047126;28;20037;-48
2021/12/03 07:26:22;;;;;;;7.03;3.10;;;;;;;-1.99;79.46;97210.03;5050394;28;20045;-53
2021/12/03 07:28:49;;;;;;;6.60;2.65;;;;;;;-1.99;78.95;97210.03;5029610;28;20056;-49
2021/12/03 07:31:15;;;;;;;6.95;2.97;;;;;;;-2.00;79.30;97213.66;5042084;28;20179;-51
2021/12/03 07:33:42;;;;;;;6.57;3.17;;;;;;;-1.97;80.08;97215.97;5043944;28;20071;-51
2021/12/03 07:36:09;;;;;;;5.70;3.08;;;;;;;-1.94;80.38;97222.75;5044758;28;20534;-52
2021/12/03 07:38:36;;;;;;;7.32;4.13;;;;;;;-1.98;80.72;97228.41;5044852;28;20045;-53
2021/12/03 07:41:04;;;;;;;5.25;2.67;;;;;;;-1.86;81.73;97228.84;5044480;28;20052;-55
2021/12/03 07:43:31;;;;;;;6.78;3.45;;;;;;;-1.71;82.14;97236.03;5044983;28;20057;-54
2021/12/03 07:45:57;;;;;;;6.45;2.95;;;;;;;-1.62;81.71;97236.81;5045086;28;20041;-55
2021/12/03 07:48:24;;;;;;;6.22;3.08;;;;;;;-1.53;80.49;97238.41;5044440;28;20049;-53
2021/12/03 07:50:53;;;;;;;10.00;4.88;;;;;;;-1.40;79.55;97239.66;5041506;28;20045;-54
2021/12/03 07:53:20;;;;;;;6.78;3.90;;;;;;;-1.59;79.82;97228.47;5044353;28;20361;-52
2021/12/03 07:55:49;;;;;;;7.05;4.00;;;;;;;-1.66;80.18;97232.88;5044207;28;20108;-55
2021/12/03 07:58:16;;;;;;;9.20;3.40;;;;;;;-1.48;80.12;97227.22;5044740;28;20041;-55
2021/12/03 08:00:44;;;;;;;6.30;3.15;;;;;;;-1.48;79.49;97235.19;5050051;28;20056;-55
2021/12/03 08:03:17;;;;;;;4.93;2.58;;;;;;;-1.22;76.88;97221.53;5054523;28;20488;-54
2021/12/03 08:05:45;;;;;;;4.47;2.35;;;;;;;-1.17;76.01;97221.00;5042576;28;20040;-55
2021/12/03 08:08:11;;;;;;;4.40;1.90;;;;;;;-1.22;75.32;97232.16;5042147;28;20820;-54
2021/12/03 08:10:39;;;;;;;5.10;2.40;;;;;;;-1.12;75.92;97221.28;5035547;28;20095;-52
2021/12/03 08:13:06;;;;;;;6.13;2.58;;;;;;;-1.16;76.49;97224.47;5041663;28;20041;-53
2021/12/03 08:15:37;;;;;;;5.22;2.50;;;;;;;-1.16;75.99;97227.97;5042799;28;20044;-53
2021/12/03 08:18:05;;;;;;;4.45;2.30;;;;;;;-1.10;76.64;97229.09;5042124;28;20045;-54
2021/12/03 08:20:32;;;;;;;4.80;2.50;;;;;;;-0.96;76.18;97230.94;5039870;28;20495;-55
2021/12/03 08:22:59;;;;;;;22.48;4.85;;;;;;;-0.90;75.37;97229.38;5043041;28;20053;-53
2021/12/03 08:25:27;;;;;;;86.00;32.80;;;;;;;-1.00;76.36;97224.31;5038627;28;20048;-56
2021/12/03 08:27:54;;;;;;;10.82;3.80;;;;;;;-1.10;77.05;97234.41;5033929;28;20111;-47
2021/12/03 08:30:21;;;;;;;7.10;3.60;;;;;;;-1.12;77.09;97234.56;5038681;28;20095;-50
2021/12/03 08:32:48;;;;;;;8.73;4.88;;;;;;;-1.13;76.25;97229.44;5040467;28;20108;-49
2021/12/03 08:35:15;;;;;;;8.13;3.47;;;;;;;-1.00;80.05;97234.16;5044131;28;20056;-53
2021/12/03 08:37:45;;;;;;;15.68;8.75;;;;;;;-1.04;79.44;97228.34;5045895;28;20064;-50
2021/12/03 08:40:12;;;;;;;8.23;4.50;;;;;;;-1.13;77.89;97232.94;5043895;28;20049;-51
2021/12/03 08:42:40;;;;;;;13.10;8.10;;;;;;;-1.16;77.64;97224.47;5045630;28;20057;-48
2021/12/03 08:45:07;;;;;;;9.43;4.55;;;;;;;-1.05;78.46;97229.38;5045481;28;20036;-52
2021/12/03 08:47:35;;;;;;;8.02;4.18;;;;;;;-0.89;78.71;97230.22;5045353;28;20037;-52
2021/12/03 08:50:09;;;;;;;11.95;7.28;;;;;;;-0.87;77.67;97225.53;5045309;28;20049;-50
2021/12/03 08:52:53;;;;;;;5.80;3.08;;;;;;;-0.96;77.21;97230.13;5046272;28;20045;-51
2021/12/03 08:55:20;;;;;;;8.43;4.65;;;;;;;-0.60;76.99;97239.19;5058931;28;20044;-54
2021/12/03 08:57:46;;;;;;;10.48;5.85;;;;;;;-0.56;77.54;97240.47;5046182;28;20128;-55
2021/12/03 09:00:16;;;;;;;8.13;4.82;;;;;;;-0.56;75.22;97243.13;5046184;28;20045;-55
2021/12/03 09:02:43;;;;;;;8.52;4.65;;;;;;;-0.45;75.69;97245.34;5050053;28;20051;-54
2021/12/03 09:05:11;;;;;;;12.98;7.45;;;;;;;-0.43;76.03;97242.50;5046196;28;20041;-53
2021/12/03 09:07:38;;;;;;;10.25;6.82;;;;;;;-0.43;76.11;97245.16;5045358;28;20041;-53
2021/12/03 09:10:15;;;;;;;10.10;6.22;;;;;;;-0.36;77.08;97246.09;5045302;28;20049;-55
2021/12/03 09:12:42;;;;;;;9.50;3.92;;;;;;;-0.41;74.10;97256.44;5045995;28;20076;-53
2021/12/03 09:15:12;;;;;;;13.75;7.25;;;;;;;-0.59;75.52;97252.31;5045220;28;21303;-54
2021/12/03 09:23:01;;;;;;;4.32;2.28;;;;;;;-0.46;74.22;97251.69;5045488;28;20055;-51
2021/12/03 09:25:37;;;;;;;8.03;3.90;;;;;;;-0.62;74.60;97255.34;5045218;28;20045;-51
2021/12/03 09:28:07;;;;;;;7.80;4.13;;;;;;;-0.43;74.99;97253.16;5044379;28;20049;-54
2021/12/03 09:30:39;;;;;;;8.38;4.43;;;;;;;-0.49;75.74;97257.34;5044032;28;20045;-53
2021/12/03 09:33:09;;;;;;;8.68;4.30;;;;;;;-0.49;74.27;97254.69;5048685;28;20522;-53
2021/12/03 09:35:49;;;;;;;4.50;2.15;;;;;;;-0.48;74.85;97243.03;5047895;28;20064;-54
2021/12/03 09:38:16;;;;;;;7.10;3.60;;;;;;;-0.49;73.91;97245.88;5044518;28;20149;-55
2021/12/03 09:40:43;;;;;;;4.75;2.35;;;;;;;-0.53;74.27;97240.13;5050439;28;20060;-53
2021/12/03 09:43:09;;;;;;;10.82;5.32;;;;;;;-0.46;74.43;97240.19;5045159;28;20459;-55
2021/12/03 09:45:38;;;;;;;8.07;2.15;;;;;;;-0.41;73.33;97240.47;5044957;28;20451;-50
2021/12/03 09:48:16;;;;;;;4.30;2.30;;;;;;;-0.36;73.27;97229.28;5043009;28;20707;-50
2021/12/03 09:50:43;;;;;;;11.98;5.93;;;;;;;-0.31;73.37;97235.72;5051055;28;20052;-48
2021/12/03 09:53:30;;;;;;;3.67;2.08;;;;;;;-0.34;74.00;97230.75;5044989;28;20057;-53
2021/12/03 09:55:57;;;;;;;6.88;1.77;;;;;;;-0.21;74.22;97224.78;5044531;28;20761;-54
2021/12/03 10:01:20;;;;;;;5.65;3.17;;;;;;;-0.21;74.21;97224.78;5046346;28;20047;-52
2021/12/03 10:04:51;;;;;;;3.78;2.17;;;;;;;-0.29;74.42;97224.88;5040796;28;20577;-53
2021/12/03 10:15:14;;;;;;;3.88;2.50;;;;;;;-0.25;74.24;97218.19;5057883;28;20098;-51
2021/12/03 10:20:18;;;;;;;4.47;2.70;;;;;;;-0.18;73.93;97205.75;5057848;28;20044;-54
2021/12/03 10:39:07;;;;;;;5.15;2.83;;;;;;;0.44;72.61;97199.22;5042002;28;20064;-49
2021/12/03 10:41:46;;;;;;;5.78;2.42;;;;;;;0.55;71.60;97206.69;5038328;28;20045;-51
2021/12/03 10:50:51;;;;;;;12.77;3.22;;;;;;;0.37;73.22;97197.31;5039722;28;20049;-50
2021/12/03 11:04:25;;;;;;;8.77;2.42;;;;;;;0.96;71.86;97165.16;5044060;28;20115;-49
2021/12/03 11:18:10;;;;;;;6.15;2.55;;;;;;;1.19;71.67;97156.09;5043531;28;20428;-52
2021/12/03 12:05:28;;;;;;;4.75;2.08;;;;;;;1.17;70.14;97110.94;5034034;28;20609;-52
2021/12/03 12:36:35;;;;;;;5.97;1.70;;;;;;;1.77;69.05;97077.47;5045472;28;20420;-53
2021/12/03 13:05:12;;;;;;;4.95;2.00;;;;;;;1.38;70.17;97055.81;5049372;28;20576;-53
2021/12/03 14:00:30;;;;;;;4.65;2.20;;;;;;;1.51;68.64;97030.22;5046953;28;20047;-51
2021/12/03 14:17:39;;;;;;;7.22;2.33;;;;;;;0.96;70.23;97017.72;5043833;28;20053;-52
2021/12/03 14:36:07;;;;;;;5.70;2.92;;;;;;;0.64;71.06;97013.69;5046077;28;20423;-53
2021/12/03 14:38:31;;;;;;;5.28;1.88;;;;;;;0.61;71.39;97003.41;5045838;28;20039;-50
2021/12/03 14:44:02;;;;;;;3.92;2.00;;;;;;;0.55;72.19;97004.19;5046082;28;20520;-54
2021/12/03 14:46:38;;;;;;;4.43;2.05;;;;;;;0.48;71.42;96990.03;5044673;28;20096;-52
2021/12/03 14:52:07;;;;;;;4.03;2.33;;;;;;;0.43;71.86;96987.13;5038070;28;20052;-51
2021/12/03 14:57:19;;;;;;;3.70;1.58;;;;;;;0.50;72.42;96990.66;5041404;28;20033;-55
2021/12/03 15:08:57;;;;;;;3.50;1.92;;;;;;;0.21;72.00;96984.53;5030861;28;20040;-55
2021/12/03 15:24:58;;;;;;;4.22;1.77;;;;;;;-0.06;73.50;96977.19;5045289;28;20159;-52
2021/12/03 15:33:03;;;;;;;4.28;2.40;;;;;;;-0.29;74.77;96980.09;5045637;28;20045;-54
2021/12/03 16:08:14;;;;;;;3.10;1.58;;;;;;;-0.51;75.19;96940.22;5044468;28;20114;-54
2021/12/03 16:53:26;;;;;;;24.40;8.80;;;;;;;-0.30;73.92;96917.22;5045366;28;20048;-54
2021/12/03 16:56:17;;;;;;;9.65;3.38;;;;;;;-0.23;73.01;96907.47;5048523;28;20120;-54
2021/12/03 16:58:45;;;;;;;31.52;13.32;;;;;;;-0.23;72.40;96907.47;5027776;28;20119;-51
2021/12/03 17:01:19;;;;;;;3.85;2.10;;;;;;;-0.12;72.02;96915.94;5045638;28;20043;-50
2021/12/03 17:51:53;;;;;;;15.52;4.28;;;;;;;0.05;70.07;96817.94;5030309;28;20064;-55
2021/12/03 17:57:26;;;;;;;3.83;1.80;;;;;;;0.02;70.67;96813.84;5044212;28;20053;-53
2021/12/03 17:59:52;;;;;;;6.13;2.78;;;;;;;-0.02;71.06;96815.25;5046459;28;20049;-55
2021/12/03 18:02:38;;;;;;;4.30;2.10;;;;;;;-0.06;71.52;96812.19;5044463;28;20071;-55
2021/12/03 18:48:53;;;;;;;8.70;4.07;;;;;;;0.04;74.00;96769.19;5061944;28;20086;-53
2021/12/03 18:56:21;;;;;;;54.58;21.45;;;;;;;-0.05;74.28;96755.25;5048640;28;20097;-47
2021/12/03 18:58:56;;;;;;;16.85;6.93;;;;;;;-0.04;74.38;96761.41;5057682;28;20361;-55
2021/12/03 19:01:27;;;;;;;17.67;7.25;;;;;;;-0.07;73.39;96749.31;5045700;28;20496;-55
2021/12/03 19:06:28;;;;;;;6.47;3.25;;;;;;;0.10;73.32;96746.28;5049257;28;20059;-54
2021/12/03 19:09:41;;;;;;;20.92;8.88;;;;;;;0.05;73.42;96730.94;5046674;28;20044;-54
2021/12/03 19:11:53;;;;;;;13.05;5.03;;;;;;;0.06;72.29;96726.41;5051264;28;20773;-54
2021/12/03 19:14:21;;;;;;;9.73;4.38;;;;;;;0.08;73.98;96713.75;5043849;28;20041;-53
2021/12/03 19:16:52;;;;;;;16.08;7.05;;;;;;;0.06;73.40;96710.44;5043636;28;20068;-55
2021/12/03 19:19:18;;;;;;;6.82;3.83;;;;;;;0.02;73.18;96709.19;5044697;28;20072;-55